EmailTwitter


Observations de surface / Québec / CYUL (71627)

Régions: Québec | Canada | États-Unis | Europe | France | UK | Ailleurs
Station
Affichage
Infos & localisation pour CYUL (71627) | Aide pour décoder les METARs

Observations prises le 2019-11-13 à 05H00 UTC à MONTREAL INTL A, QB (CYUL)

Etat du ciel: partiellement nuageux.

Obstacle(s) à la visibilité: poudrerie basse.

Température: -11.0 Celsius

Point de rosée: -15.0 Celsius

Humidité relative: 72%

Facteur vent: -20.

Facteur vent (rafales): -22.

Vents: Ouest à 28 km/h ou 15 noeuds.

Rafale du vent: 39 km/h ou 21 noeuds.

Pression au niveau moyen de la mer: 101.76 kilopascals.

Calage altimétrique: 101.73 kilopascals ou 30.04 pouces de mercure.

Visibilité horizontale: 15.00 milles terrestres ou 24.00 kilomètres.

Hauteur du plafond: 975 mètres ( 3200 pieds ).

Observation METAR:

CYUL 130500Z 26015G21KT 15SM DRSN FEW022 BKN032 M11/M15 A3004 RMK SC1SC7 SC TR

SLP176=